Time;durP1;ratioP1;P1;durP2;ratioP2;P2;SDS_P1;SDS_P2;PMS_P1;PMS_P2;Temp;Humidity;BMP_temperature;BMP_pressure;BME280_temperature;BME280_humidity;BME280_pressure;Samples;Min_cycle;Max_cycle;Signal;HPM_P1;HPM_P2
2023/10/21 00:00:54;;;;;;;0.80;0.80;;;13.20;1.00;;;;;;7374331;19;20010;-70
2023/10/21 00:03:25;;;;;;;2.50;0.90;;;13.20;1.00;;;;;;7375039;19;20006;-70
2023/10/21 00:05:55;;;;;;;2.05;0.80;;;13.30;1.00;;;;;;7373910;19;20038;-70
2023/10/21 00:08:28;;;;;;;2.40;1.13;;;13.40;1.00;;;;;;7374871;19;20014;-70
2023/10/21 00:11:05;;;;;;;1.90;0.68;;;13.40;1.00;;;;;;7374039;19;20042;-70
2023/10/21 00:13:35;;;;;;;1.70;1.10;;;13.40;1.00;;;;;;7375477;19;20006;-70
2023/10/21 00:16:06;;;;;;;2.33;1.20;;;13.60;1.00;;;;;;7375112;19;20023;-70
2023/10/21 00:18:36;;;;;;;0.77;0.60;;;13.60;1.00;;;;;;7374273;19;20486;-69
2023/10/21 00:21:06;;;;;;;3.03;0.65;;;13.70;1.00;;;;;;7375488;19;20503;-70
2023/10/21 00:23:38;;;;;;;1.73;0.70;;;13.90;1.00;;;;;;7375883;19;20471;-70
2023/10/21 00:26:09;;;;;;;0.80;0.50;;;14.10;1.00;;;;;;7376129;19;20025;-70
2023/10/21 00:28:39;;;;;;;2.10;0.70;;;13.90;1.00;;;;;;7371902;19;20021;-70
2023/10/21 00:31:09;;;;;;;0.88;0.55;;;14.00;1.00;;;;;;7373069;19;20559;-70
2023/10/21 00:33:39;;;;;;;1.88;0.70;;;14.10;1.00;;;;;;7375141;19;20027;-70
2023/10/21 00:36:09;;;;;;;0.80;0.47;;;14.10;1.00;;;;;;7374753;19;20010;-70
2023/10/21 00:38:42;;;;;;;3.70;0.55;;;14.20;1.00;;;;;;7369210;19;20006;-70
2023/10/21 00:41:12;;;;;;;1.30;0.47;;;14.30;1.00;;;;;;7372537;19;20014;-71
2023/10/21 00:43:43;;;;;;;0.43;0.40;;;14.30;1.00;;;;;;7373220;19;20481;-70
2023/10/21 00:46:18;;;;;;;1.85;0.40;;;14.30;1.00;;;;;;7373307;19;20007;-70
2023/10/21 00:48:48;;;;;;;;;;;14.30;1.00;;;;;;7370918;19;20555;-70
2023/10/21 00:51:19;;;;;;;0.52;0.40;;;14.30;1.00;;;;;;7373090;19;19941;-70
2023/10/21 00:53:51;;;;;;;0.60;0.40;;;14.30;1.00;;;;;;7373460;19;20014;-71
2023/10/21 00:56:21;;;;;;;0.77;0.50;;;14.30;1.00;;;;;;7373418;19;20006;-70
2023/10/21 00:58:52;;;;;;;1.20;0.30;;;14.40;1.00;;;;;;7372568;19;20003;-71
2023/10/21 01:01:22;;;;;;;0.45;0.35;;;14.60;1.00;;;;;;7374489;19;20017;-70
2023/10/21 01:03:53;;;;;;;0.98;0.38;;;14.60;1.00;;;;;;7373949;19;20511;-70
2023/10/21 01:06:23;;;;;;;0.50;0.40;;;14.50;1.00;;;;;;7372906;19;20010;-71
2023/10/21 01:08:55;;;;;;;0.45;0.32;;;14.40;1.00;;;;;;7371823;19;20019;-72
2023/10/21 01:11:25;;;;;;;0.80;0.52;;;14.40;1.00;;;;;;7374090;19;20011;-71
2023/10/21 01:13:56;;;;;;;4.00;0.60;;;14.40;1.00;;;;;;7372484;19;20082;-72
2023/10/21 01:16:28;;;;;;;1.30;0.50;;;14.30;1.00;;;;;;7372446;19;20078;-72
2023/10/21 01:18:58;;;;;;;0.77;0.32;;;14.30;1.00;;;;;;7371650;19;20098;-71
2023/10/21 01:21:28;;;;;;;0.38;0.20;;;14.20;1.00;;;;;;7375871;19;20102;-71
2023/10/21 01:24:01;;;;;;;0.40;0.20;;;14.20;1.00;;;;;;7379166;19;20017;-71
2023/10/21 01:26:31;;;;;;;0.88;0.30;;;14.10;1.00;;;;;;7379317;19;20033;-71
2023/10/21 01:29:01;;;;;;;0.90;0.32;;;14.10;1.00;;;;;;7379338;19;20055;-71
2023/10/21 01:31:32;;;;;;;0.68;0.30;;;14.20;1.00;;;;;;7380149;19;20109;-71
2023/10/21 01:34:02;;;;;;;1.27;0.60;;;14.20;1.00;;;;;;7379244;19;20071;-71
2023/10/21 01:36:32;;;;;;;0.40;0.30;;;14.30;1.00;;;;;;7379007;19;20007;-71
2023/10/21 01:39:05;;;;;;;1.23;0.35;;;14.20;1.00;;;;;;7377888;19;20069;-71
2023/10/21 01:41:37;;;;;;;0.77;0.20;;;14.30;1.00;;;;;;7379245;19;20119;-71
2023/10/21 01:44:07;;;;;;;0.43;0.20;;;14.40;1.00;;;;;;7377307;19;20086;-71
2023/10/21 01:46:38;;;;;;;0.52;0.30;;;14.30;1.00;;;;;;7379447;19;20126;-71
2023/10/21 01:49:08;;;;;;;0.73;0.30;;;14.30;1.00;;;;;;7378621;19;20020;-71
2023/10/21 01:51:38;;;;;;;0.50;0.30;;;14.30;1.00;;;;;;7373947;19;20026;-71
2023/10/21 01:54:11;;;;;;;0.20;0.20;;;14.30;1.00;;;;;;7380389;19;20053;-72
2023/10/21 01:56:41;;;;;;;1.30;0.30;;;14.40;1.00;;;;;;7377950;19;20006;-71
2023/10/21 01:59:12;;;;;;;3.08;0.50;;;14.30;1.00;;;;;;7377466;19;20010;-71
2023/10/21 02:01:42;;;;;;;0.60;0.20;;;14.30;1.00;;;;;;7375683;19;20482;-71
2023/10/21 02:04:12;;;;;;;0.65;0.28;;;14.30;1.00;;;;;;7378331;19;20039;-71
2023/10/21 02:06:42;;;;;;;0.25;0.10;;;14.20;1.00;;;;;;7377617;19;20014;-70
2023/10/21 02:09:15;;;;;;;0.32;0.25;;;14.20;1.00;;;;;;7378191;19;20041;-70
2023/10/21 02:11:45;;;;;;;3.85;0.30;;;14.30;1.00;;;;;;7377976;19;20031;-71
2023/10/21 02:14:15;;;;;;;0.50;0.25;;;14.40;1.00;;;;;;7378647;19;20010;-70
2023/10/21 02:16:45;;;;;;;2.55;0.20;;;14.30;1.00;;;;;;7376272;19;20015;-71
2023/10/21 02:19:15;;;;;;;0.82;0.30;;;14.30;1.00;;;;;;7376470;19;20006;-71
2023/10/21 02:21:45;;;;;;;0.30;0.20;;;14.20;1.00;;;;;;7377489;19;20018;-72
2023/10/21 02:24:17;;;;;;;1.52;0.22;;;14.30;1.00;;;;;;7377045;19;20023;-72
2023/10/21 02:26:49;;;;;;;0.52;0.22;;;14.20;1.00;;;;;;7377764;19;20021;-71
2023/10/21 02:29:19;;;;;;;0.57;0.30;;;14.30;1.00;;;;;;7397762;19;20018;-72
2023/10/21 02:31:49;;;;;;;0.40;0.30;;;14.30;1.00;;;;;;7389571;19;20471;-71
2023/10/21 02:34:19;;;;;;;0.90;0.17;;;14.30;1.00;;;;;;7376367;19;20039;-71
2023/10/21 02:36:50;;;;;;;2.28;0.22;;;14.20;1.00;;;;;;7376930;19;20013;-71
2023/10/21 02:39:22;;;;;;;0.80;0.45;;;14.20;1.00;;;;;;7374645;19;20348;-71
2023/10/21 02:41:52;;;;;;;0.70;0.30;;;14.10;1.00;;;;;;7377786;19;20014;-71
2023/10/21 02:44:22;;;;;;;0.63;0.30;;;14.10;1.00;;;;;;7376093;19;20022;-71
2023/10/21 02:46:52;;;;;;;0.30;0.20;;;14.00;1.00;;;;;;7375184;19;20093;-69
2023/10/21 02:49:23;;;;;;;0.45;0.20;;;14.10;1.00;;;;;;7375613;19;20014;-71
2023/10/21 02:51:53;;;;;;;1.00;0.10;;;14.20;1.00;;;;;;7377900;19;20010;-71
2023/10/21 02:54:25;;;;;;;0.45;0.20;;;14.00;1.00;;;;;;7377768;19;20019;-72
2023/10/21 02:56:55;;;;;;;0.30;0.20;;;14.00;1.00;;;;;;7376642;19;20106;-71
2023/10/21 02:59:25;;;;;;;2.25;0.20;;;14.00;1.00;;;;;;7376088;19;20349;-70
2023/10/21 03:01:55;;;;;;;2.42;0.28;;;13.90;1.00;;;;;;7375382;19;20078;-70
2023/10/21 03:04:25;;;;;;;0.38;0.30;;;13.90;1.00;;;;;;7376257;19;20015;-71
2023/10/21 03:06:55;;;;;;;0.50;0.20;;;13.80;1.00;;;;;;7375231;19;20143;-71
2023/10/21 03:09:28;;;;;;;0.20;0.20;;;13.80;1.00;;;;;;7374759;19;20016;-71
2023/10/21 03:11:58;;;;;;;0.30;0.20;;;13.80;1.00;;;;;;7375596;19;20010;-70
2023/10/21 03:14:28;;;;;;;2.25;0.28;;;13.90;1.00;;;;;;7375994;19;20006;-70
2023/10/21 03:16:58;;;;;;;0.10;0.10;;;13.80;1.00;;;;;;7375813;19;20013;-70
2023/10/21 03:19:28;;;;;;;0.30;0.30;;;13.70;1.00;;;;;;7375691;19;20498;-71
2023/10/21 03:21:58;;;;;;;0.40;0.20;;;13.60;1.00;;;;;;7376417;19;20550;-70
2023/10/21 03:24:30;;;;;;;0.25;0.20;;;13.70;1.00;;;;;;7376586;19;20536;-71
2023/10/21 03:27:00;;;;;;;0.65;0.30;;;13.60;1.00;;;;;;7374918;19;20085;-70
2023/10/21 03:29:30;;;;;;;0.20;0.15;;;13.60;1.00;;;;;;7375898;19;20471;-70
2023/10/21 03:32:00;;;;;;;1.50;0.40;;;13.60;1.00;;;;;;7375872;19;20039;-70
2023/10/21 03:34:30;;;;;;;1.08;0.30;;;13.60;1.00;;;;;;7374807;19;20014;-70
2023/10/21 03:37:00;;;;;;;0.88;0.43;;;13.50;1.00;;;;;;7375319;19;20031;-70
2023/10/21 03:39:33;;;;;;;1.08;0.20;;;13.50;1.00;;;;;;7375443;19;20064;-70
2023/10/21 03:42:03;;;;;;;0.35;0.20;;;13.40;1.00;;;;;;7376844;19;20078;-70
2023/10/21 03:44:33;;;;;;;0.20;0.20;;;13.40;1.00;;;;;;7374463;19;20018;-70
2023/10/21 03:47:03;;;;;;;0.63;0.20;;;13.40;1.00;;;;;;7374111;19;20037;-71
2023/10/21 03:49:33;;;;;;;0.63;0.30;;;13.20;1.00;;;;;;7374886;19;20018;-70
2023/10/21 03:52:03;;;;;;;0.17;0.10;;;13.20;1.00;;;;;;7374809;19;20492;-71
2023/10/21 03:54:36;;;;;;;0.47;0.30;;;13.20;1.00;;;;;;7375875;19;20027;-71
2023/10/21 03:57:06;;;;;;;3.90;0.85;;;13.10;1.00;;;;;;7375072;19;20031;-71
2023/10/21 03:59:37;;;;;;;0.77;0.25;;;13.10;1.00;;;;;;7374682;19;20010;-71
2023/10/21 04:02:07;;;;;;;0.93;0.20;;;13.10;1.00;;;;;;7376273;19;20014;-71
2023/10/21 04:04:37;;;;;;;1.20;0.20;;;13.10;1.00;;;;;;7375309;19;20026;-71
2023/10/21 04:07:08;;;;;;;0.60;0.30;;;13.10;1.00;;;;;;7374428;19;20022;-71
2023/10/21 04:09:40;;;;;;;0.73;0.30;;;13.10;1.00;;;;;;7372743;19;20535;-71
2023/10/21 04:12:12;;;;;;;0.45;0.22;;;13.20;1.00;;;;;;7372394;19;20006;-70
2023/10/21 04:14:42;;;;;;;2.35;0.40;;;13.10;1.00;;;;;;7375178;19;20077;-70
2023/10/21 04:17:12;;;;;;;2.25;0.68;;;13.10;1.00;;;;;;7371802;19;20090;-70
2023/10/21 04:19:43;;;;;;;0.30;0.20;;;13.20;1.00;;;;;;7377046;19;20464;-70
2023/10/21 04:22:13;;;;;;;2.47;0.30;;;13.20;1.00;;;;;;7374796;19;20006;-71
2023/10/21 04:24:46;;;;;;;0.50;0.30;;;13.20;1.00;;;;;;7374254;19;20081;-71
2023/10/21 04:27:16;;;;;;;1.15;0.40;;;13.20;1.00;;;;;;7370261;19;20089;-70
2023/10/21 04:29:46;;;;;;;0.82;0.35;;;13.20;1.00;;;;;;7372413;19;20017;-71
2023/10/21 04:32:16;;;;;;;1.42;0.30;;;13.20;1.00;;;;;;7372485;19;20071;-71
2023/10/21 04:34:46;;;;;;;0.95;0.52;;;13.20;1.00;;;;;;7373343;19;20014;-71
2023/10/21 04:37:15;;;;;;;0.82;0.32;;;13.30;1.00;;;;;;7373292;19;20162;-71
2023/10/21 04:39:48;;;;;;;0.43;0.30;;;13.30;1.00;;;;;;7370825;19;20780;-71
2023/10/21 04:42:18;;;;;;;0.63;0.20;;;13.30;1.00;;;;;;7374754;19;20014;-71
2023/10/21 04:44:48;;;;;;;1.70;0.30;;;13.30;1.00;;;;;;7371461;19;20022;-73
2023/10/21 04:47:18;;;;;;;0.90;0.30;;;13.20;1.00;;;;;;7371316;19;20010;-71
2023/10/21 04:49:48;;;;;;;1.65;0.40;;;13.20;1.00;;;;;;7371422;19;20139;-71
2023/10/21 04:52:19;;;;;;;3.25;0.30;;;13.20;1.00;;;;;;7373706;19;20037;-71
2023/10/21 04:54:51;;;;;;;0.52;0.30;;;13.10;1.00;;;;;;7372352;19;20021;-71
2023/10/21 04:57:21;;;;;;;1.08;0.45;;;13.00;1.00;;;;;;7376703;19;20070;-71
2023/10/21 04:59:51;;;;;;;0.30;0.30;;;13.00;1.00;;;;;;7377711;19;20021;-72
2023/10/21 05:02:21;;;;;;;3.00;0.52;;;12.90;1.00;;;;;;7379773;19;20015;-71
2023/10/21 05:04:52;;;;;;;1.90;0.40;;;12.80;1.00;;;;;;7379414;19;20078;-70
2023/10/21 05:07:22;;;;;;;1.42;0.40;;;12.80;1.00;;;;;;7378469;19;20014;-71
2023/10/21 05:09:55;;;;;;;1.98;0.57;;;12.80;1.00;;;;;;7379859;19;20086;-70
2023/10/21 05:12:25;;;;;;;0.90;0.50;;;12.80;1.00;;;;;;7379071;19;20014;-70
2023/10/21 05:14:55;;;;;;;1.42;0.50;;;12.80;1.00;;;;;;7378963;19;20110;-71
2023/10/21 05:17:25;;;;;;;0.82;0.38;;;12.80;1.00;;;;;;7378383;19;20011;-71
2023/10/21 05:19:55;;;;;;;1.75;0.43;;;12.90;1.00;;;;;;7377135;19;20422;-71
2023/10/21 05:22:25;;;;;;;4.05;0.90;;;12.90;1.00;;;;;;7379875;19;20082;-71
2023/10/21 05:24:58;;;;;;;0.88;0.50;;;12.90;1.00;;;;;;7378781;19;20078;-70
2023/10/21 05:27:28;;;;;;;2.28;0.40;;;13.00;1.00;;;;;;7377649;19;20025;-71
2023/10/21 05:29:58;;;;;;;1.42;0.60;;;13.10;1.00;;;;;;7377962;19;20034;-72
2023/10/21 05:32:28;;;;;;;1.45;0.40;;;13.10;1.00;;;;;;7379336;19;20021;-72
2023/10/21 05:34:58;;;;;;;1.27;0.52;;;13.10;1.00;;;;;;7378534;19;20014;-71
2023/10/21 05:37:28;;;;;;;1.55;0.60;;;13.10;1.00;;;;;;7378665;19;20078;-70
2023/10/21 05:40:01;;;;;;;1.05;0.52;;;13.10;1.00;;;;;;7376805;19;20767;-70
2023/10/21 05:42:31;;;;;;;0.70;0.40;;;13.20;1.00;;;;;;7378671;19;20070;-71
2023/10/21 05:45:01;;;;;;;1.20;0.40;;;13.20;1.00;;;;;;7377400;19;20007;-70
2023/10/21 05:47:32;;;;;;;2.83;0.75;;;13.10;1.00;;;;;;7377161;19;20081;-70
2023/10/21 05:50:02;;;;;;;0.88;0.50;;;13.10;1.00;;;;;;7377120;19;20462;-70
2023/10/21 05:52:32;;;;;;;0.93;0.30;;;13.10;1.00;;;;;;7376054;19;20002;-70
2023/10/21 05:55:05;;;;;;;1.27;0.50;;;13.10;1.00;;;;;;7377254;19;20420;-70
2023/10/21 05:57:35;;;;;;;1.20;0.40;;;13.10;1.00;;;;;;7377409;19;20026;-71
2023/10/21 06:00:07;;;;;;;1.90;1.00;;;13.00;1.00;;;;;;7378803;19;20055;-71
2023/10/21 06:02:37;;;;;;;0.85;0.50;;;13.00;1.00;;;;;;7377733;19;20021;-71
2023/10/21 06:05:07;;;;;;;2.13;0.50;;;13.00;1.00;;;;;;7378888;19;20085;-71
2023/10/21 06:07:37;;;;;;;1.00;0.60;;;12.90;3.40;;;;;;7407444;19;20011;-71
2023/10/21 06:10:11;;;;;;;1.08;0.47;;;12.90;5.70;;;;;;7378404;19;20014;-71
2023/10/21 06:12:43;;;;;;;1.95;0.43;;;12.90;6.40;;;;;;7378841;19;20011;-71
2023/10/21 06:15:16;;;;;;;2.47;0.95;;;13.00;4.10;;;;;;7376743;19;20006;-71
2023/10/21 06:17:46;;;;;;;3.00;0.50;;;12.90;5.10;;;;;;7376761;19;20010;-70
2023/10/21 06:20:16;;;;;;;1.13;0.45;;;12.90;5.20;;;;;;7377021;19;20471;-70
2023/10/21 06:22:47;;;;;;;0.68;0.28;;;12.90;5.30;;;;;;7376916;19;20016;-70
2023/10/21 06:25:20;;;;;;;1.08;0.50;;;12.90;6.00;;;;;;7378280;19;20014;-70
2023/10/21 06:27:50;;;;;;;5.45;0.65;;;13.00;5.10;;;;;;7376682;19;20394;-71
2023/10/21 06:30:20;;;;;;;1.75;0.68;;;13.00;2.60;;;;;;7376676;19;20635;-71
2023/10/21 06:32:50;;;;;;;1.45;0.45;;;13.00;2.20;;;;;;7377210;19;20011;-70
2023/10/21 06:35:20;;;;;;;1.00;0.40;;;13.10;2.10;;;;;;7377430;19;20014;-70
2023/10/21 06:37:51;;;;;;;1.05;0.50;;;13.00;2.90;;;;;;7375443;19;20014;-71
2023/10/21 06:40:23;;;;;;;0.85;0.50;;;13.00;3.80;;;;;;7374530;19;20007;-70
2023/10/21 06:43:12;;;;;;;1.55;0.70;;;13.10;2.60;;;;;;7376228;19;20470;-71
2023/10/21 06:45:42;;;;;;;1.98;0.75;;;13.20;1.00;;;;;;7377604;19;20007;-71
2023/10/21 06:48:11;;;;;;;2.15;0.60;;;13.10;2.70;;;;;;7378090;19;20081;-71
2023/10/21 06:50:42;;;;;;;0.75;0.43;;;13.10;3.60;;;;;;7377458;19;20010;-70
2023/10/21 06:53:12;;;;;;;1.10;0.50;;;13.10;2.40;;;;;;7373676;19;20035;-71
2023/10/21 06:55:46;;;;;;;1.65;0.65;;;13.10;5.50;;;;;;7377046;19;20018;-71
2023/10/21 06:58:16;;;;;;;2.78;0.60;;;13.20;2.60;;;;;;7373661;19;20002;-71
2023/10/21 07:00:46;;;;;;;2.10;0.60;;;13.30;1.80;;;;;;7376005;19;20011;-71
2023/10/21 07:03:17;;;;;;;3.13;0.95;;;13.40;1.00;;;;;;7376304;19;20006;-70
2023/10/21 07:05:47;;;;;;;0.70;0.55;;;13.50;1.00;;;;;;7374978;19;20424;-71
2023/10/21 07:08:17;;;;;;;2.08;0.60;;;13.60;1.00;;;;;;7374633;19;20040;-71
2023/10/21 07:10:52;;;;;;;2.70;1.00;;;13.80;1.00;;;;;;7373504;19;20006;-71
2023/10/21 07:13:23;;;;;;;2.08;1.10;;;13.80;1.00;;;;;;7375398;19;20508;-70
2023/10/21 07:15:53;;;;;;;3.25;1.10;;;13.90;1.00;;;;;;7374654;19;20112;-70
2023/10/21 07:18:23;;;;;;;2.92;1.23;;;13.90;1.00;;;;;;7374057;19;20054;-70
2023/10/21 07:20:59;;;;;;;1.55;1.23;;;14.10;1.00;;;;;;7372998;19;20018;-70
2023/10/21 07:23:29;;;;;;;1.55;1.08;;;14.20;1.00;;;;;;7374553;19;20041;-70
2023/10/21 07:26:02;;;;;;;5.00;1.10;;;14.20;1.00;;;;;;7374289;19;20768;-71
2023/10/21 07:28:33;;;;;;;3.63;1.15;;;14.40;1.00;;;;;;7373233;19;20021;-71
2023/10/21 07:31:03;;;;;;;1.67;0.90;;;14.50;1.00;;;;;;7375562;19;20014;-71
2023/10/21 07:33:35;;;;;;;3.28;0.88;;;14.50;1.00;;;;;;7374932;19;20018;-72
2023/10/21 07:36:07;;;;;;;2.45;0.90;;;14.60;1.00;;;;;;7374375;19;20332;-71
2023/10/21 07:38:38;;;;;;;2.20;1.05;;;14.70;1.00;;;;;;7375160;19;20026;-71
2023/10/21 07:41:16;;;;;;;3.38;0.90;;;14.70;1.00;;;;;;7375236;19;20026;-71
2023/10/21 07:43:46;;;;;;;0.80;0.43;;;14.80;1.00;;;;;;7374249;19;20006;-72
2023/10/21 07:46:16;;;;;;;1.00;0.47;;;14.90;1.00;;;;;;7374298;19;20399;-71
2023/10/21 07:48:46;;;;;;;2.00;0.45;;;15.00;1.00;;;;;;7372926;19;20609;-71
2023/10/21 07:51:16;;;;;;;1.13;0.40;;;15.10;1.00;;;;;;7375694;19;20078;-71
2023/10/21 07:53:46;;;;;;;1.05;0.30;;;15.30;1.00;;;;;;7374870;19;20375;-72
2023/10/21 07:56:19;;;;;;;1.63;0.40;;;15.50;1.00;;;;;;7375160;19;20014;-72
2023/10/21 07:58:49;;;;;;;1.35;0.38;;;15.60;1.00;;;;;;7371714;19;20023;-71
2023/10/21 08:01:19;;;;;;;0.30;0.20;;;15.60;1.00;;;;;;7374123;19;20655;-72
2023/10/21 08:03:49;;;;;;;1.65;0.43;;;15.50;1.00;;;;;;7373246;19;20542;-72
2023/10/21 08:06:19;;;;;;;2.28;0.47;;;15.30;1.00;;;;;;7372356;19;20471;-71
2023/10/21 08:08:49;;;;;;;1.35;0.70;;;15.30;1.00;;;;;;7372441;19;20022;-71
2023/10/21 08:11:22;;;;;;;0.82;0.50;;;15.50;1.00;;;;;;7372894;19;20015;-71
2023/10/21 08:13:53;;;;;;;3.10;0.40;;;15.50;1.00;;;;;;7372684;19;20090;-70
2023/10/21 08:16:23;;;;;;;1.83;0.35;;;15.60;1.00;;;;;;7373648;19;20011;-70
2023/10/21 08:18:53;;;;;;;0.40;0.28;;;15.70;1.00;;;;;;7371423;19;20085;-71
2023/10/21 08:21:23;;;;;;;1.83;0.50;;;15.90;1.00;;;;;;7373243;19;20186;-71
2023/10/21 08:23:53;;;;;;;1.23;0.57;;;16.00;1.00;;;;;;7373328;19;20017;-71
2023/10/21 08:26:28;;;;;;;2.30;0.60;;;16.00;1.00;;;;;;7372441;19;20058;-71
2023/10/21 08:28:58;;;;;;;1.10;0.50;;;15.90;1.00;;;;;;7374633;19;20025;-71
2023/10/21 08:31:28;;;;;;;2.17;1.00;;;16.10;1.00;;;;;;7373599;19;20404;-70
2023/10/21 08:33:58;;;;;;;3.33;0.60;;;16.20;1.00;;;;;;7372646;19;20028;-71
2023/10/21 08:36:29;;;;;;;2.30;0.60;;;16.30;1.00;;;;;;7370958;19;20086;-71
2023/10/21 08:38:59;;;;;;;1.77;0.57;;;16.40;1.00;;;;;;7373138;19;20404;-72
2023/10/21 08:41:37;;;;;;;0.77;0.38;;;16.50;1.00;;;;;;7373871;19;20021;-71
2023/10/21 08:44:08;;;;;;;2.85;0.80;;;16.50;1.00;;;;;;7373242;19;20098;-71
2023/10/21 08:46:39;;;;;;;2.53;0.65;;;16.60;1.00;;;;;;7371294;19;20011;-71
2023/10/21 08:49:10;;;;;;;1.63;0.30;;;16.70;1.00;;;;;;7370578;19;20010;-71
2023/10/21 08:51:41;;;;;;;0.70;0.40;;;16.70;1.00;;;;;;7372037;19;21050;-72
2023/10/21 08:54:12;;;;;;;1.48;0.45;;;16.70;1.00;;;;;;7373399;19;20011;-70
2023/10/21 08:56:45;;;;;;;2.10;0.40;;;16.60;1.00;;;;;;7373735;19;20046;-71
2023/10/21 08:59:16;;;;;;;1.00;0.35;;;16.50;1.00;;;;;;7370272;19;20074;-72
2023/10/21 09:01:47;;;;;;;2.95;0.70;;;16.50;1.00;;;;;;7373556;19;20027;-70
2023/10/21 09:04:22;;;;;;;10.13;0.70;;;16.70;1.00;;;;;;7370631;19;20121;-71
2023/10/21 09:06:59;;;;;;;1.60;0.32;;;16.70;1.00;;;;;;7371450;19;20046;-71
2023/10/21 09:09:30;;;;;;;1.30;0.45;;;16.50;1.00;;;;;;7372571;19;20015;-71
2023/10/21 09:12:14;;;;;;;1.10;0.70;;;16.40;1.00;;;;;;7373074;19;20021;-71
2023/10/21 09:14:55;;;;;;;1.23;0.70;;;16.40;1.00;;;;;;7371999;19;20007;-70
2023/10/21 09:17:36;;;;;;;2.42;0.82;;;16.50;1.00;;;;;;7369815;19;20013;-72
2023/10/21 09:20:10;;;;;;;0.93;0.50;;;16.50;1.00;;;;;;7372828;19;20130;-70
2023/10/21 09:22:40;;;;;;;2.05;0.77;;;16.80;1.00;;;;;;7373471;19;20015;-70
2023/10/21 09:25:18;;;;;;;1.35;0.40;;;17.20;1.00;;;;;;7372556;19;20053;-71
2023/10/21 09:27:53;;;;;;;1.40;0.30;;;17.60;1.00;;;;;;7370888;19;20003;-71
2023/10/21 09:30:24;;;;;;;1.80;0.65;;;17.80;1.00;;;;;;7371424;19;20082;-71
2023/10/21 09:33:03;;;;;;;0.90;0.30;;;18.00;1.00;;;;;;7371926;19;20034;-71
2023/10/21 09:35:36;;;;;;;2.67;0.50;;;17.80;1.00;;;;;;7373186;19;20018;-71
2023/10/21 09:38:18;;;;;;;6.00;0.50;;;18.00;1.00;;;;;;7371642;19;20030;-71
2023/10/21 09:40:48;;;;;;;1.52;0.50;;;18.30;1.00;;;;;;7370975;19;20007;-70
2023/10/21 09:43:24;;;;;;;0.70;0.40;;;18.20;1.00;;;;;;7377024;19;20531;-73
2023/10/21 09:45:59;;;;;;;1.75;0.40;;;18.30;1.00;;;;;;7403991;19;20015;-72
2023/10/21 09:48:31;;;;;;;0.70;0.30;;;18.60;1.00;;;;;;7380699;19;20039;-72
2023/10/21 09:51:03;;;;;;;0.65;0.30;;;18.20;1.00;;;;;;7375578;19;20040;-70
2023/10/21 09:53:46;;;;;;;1.10;0.30;;;18.50;1.00;;;;;;7379882;19;20101;-71
2023/10/21 09:56:17;;;;;;;3.40;0.63;;;18.60;1.00;;;;;;7379631;19;20023;-72
2023/10/21 09:58:51;;;;;;;2.22;0.75;;;18.80;1.00;;;;;;7376082;19;20010;-71
2023/10/21 10:01:23;;;;;;;1.27;0.30;;;18.80;1.00;;;;;;7377651;19;20023;-71
2023/10/21 10:03:55;;;;;;;1.70;0.43;;;17.90;1.00;;;;;;7378933;19;20007;-70
2023/10/21 10:06:27;;;;;;;1.38;0.57;;;18.40;1.00;;;;;;7375310;19;20085;-72
2023/10/21 10:09:06;;;;;;;0.43;0.32;;;18.50;1.00;;;;;;7378262;19;20011;-71
2023/10/21 10:11:39;;;;;;;1.42;0.52;;;18.70;1.00;;;;;;7379732;19;20026;-71
2023/10/21 10:14:16;;;;;;;1.40;0.52;;;18.60;1.00;;;;;;7377554;19;20018;-71
2023/10/21 10:16:47;;;;;;;1.20;0.30;;;18.60;1.00;;;;;;7379374;19;20820;-72
2023/10/21 10:19:16;;;;;;;0.65;0.40;;;18.40;1.00;;;;;;7376396;19;20387;-72
2023/10/21 10:21:52;;;;;;;2.28;0.40;;;18.40;1.00;;;;;;7379939;19;20463;-72
2023/10/21 10:24:22;;;;;;;1.90;0.43;;;17.50;1.00;;;;;;7377910;19;20027;-71
2023/10/21 10:26:55;;;;;;;5.85;0.40;;;17.30;1.00;;;;;;7377233;19;20629;-70
2023/10/21 10:29:27;;;;;;;1.55;0.30;;;17.50;1.00;;;;;;7376680;19;20010;-72
2023/10/21 10:32:16;;;;;;;0.77;0.25;;;17.50;1.00;;;;;;7378538;19;20006;-71
2023/10/21 10:34:54;;;;;;;1.17;0.35;;;17.50;1.00;;;;;;7378771;19;20612;-73
2023/10/21 10:37:32;;;;;;;2.15;0.50;;;17.50;1.00;;;;;;7374702;19;20031;-71
2023/10/21 10:40:05;;;;;;;2.50;0.40;;;17.70;1.00;;;;;;7376365;19;20031;-71
2023/10/21 10:42:36;;;;;;;1.27;0.30;;;17.90;1.00;;;;;;7377882;19;20056;-71
2023/10/21 10:45:09;;;;;;;0.90;0.35;;;17.40;1.00;;;;;;7375866;19;20047;-71
2023/10/21 10:47:40;;;;;;;1.77;0.60;;;17.40;1.00;;;;;;7376806;19;20522;-71
2023/10/21 10:50:19;;;;;;;1.70;0.70;;;17.70;1.00;;;;;;7375857;19;26663;-71
2023/10/21 10:52:49;;;;;;;0.93;0.43;;;17.80;1.00;;;;;;7377117;19;20029;-71
2023/10/21 10:55:19;;;;;;;1.20;0.65;;;17.90;1.00;;;;;;7375290;19;20015;-71
2023/10/21 10:57:49;;;;;;;2.42;0.50;;;17.90;1.00;;;;;;7377031;19;20538;-71
2023/10/21 11:00:25;;;;;;;1.17;0.32;;;17.80;1.00;;;;;;7376982;19;20018;-71
2023/10/21 11:02:56;;;;;;;1.90;0.52;;;17.70;1.00;;;;;;7376226;19;20039;-71
2023/10/21 11:05:28;;;;;;;6.38;0.50;;;17.90;1.00;;;;;;7375426;19;20010;-71
2023/10/21 11:07:59;;;;;;;4.05;0.50;;;17.90;1.00;;;;;;7375738;19;20010;-71
2023/10/21 11:10:29;;;;;;;1.48;0.50;;;17.80;1.00;;;;;;7375525;19;20042;-72
2023/10/21 11:12:59;;;;;;;2.53;0.60;;;17.80;1.00;;;;;;7376271;19;20444;-71
2023/10/21 11:15:31;;;;;;;1.60;0.63;;;17.70;1.00;;;;;;7376501;19;20015;-71
2023/10/21 11:18:02;;;;;;;1.90;0.70;;;17.80;1.00;;;;;;7374610;19;20074;-72
2023/10/21 11:20:32;;;;;;;3.92;1.00;;;17.90;1.00;;;;;;7374918;19;20344;-71
2023/10/21 11:23:11;;;;;;;0.80;0.60;;;18.30;1.00;;;;;;7377280;19;20733;-72
2023/10/21 11:25:43;;;;;;;1.20;0.68;;;18.30;1.00;;;;;;7377832;19;20032;-71
2023/10/21 11:28:14;;;;;;;3.38;0.65;;;18.30;1.00;;;;;;7376329;19;20023;-71
2023/10/21 11:30:47;;;;;;;1.48;0.47;;;18.20;1.00;;;;;;7374238;19;20018;-71
2023/10/21 11:33:18;;;;;;;1.30;0.50;;;18.40;1.00;;;;;;7377942;19;19998;-72
2023/10/21 11:35:49;;;;;;;1.98;0.68;;;18.70;1.00;;;;;;7376125;19;20014;-71
2023/10/21 11:38:21;;;;;;;2.38;0.47;;;18.50;1.00;;;;;;7374390;19;20040;-72
2023/10/21 11:40:51;;;;;;;4.47;1.00;;;18.30;1.00;;;;;;7376784;19;20013;-72
2023/10/21 11:43:21;;;;;;;2.30;0.50;;;18.20;1.00;;;;;;7376701;19;20010;-71
2023/10/21 11:45:57;;;;;;;1.98;0.52;;;18.20;1.00;;;;;;7375247;19;20522;-72
2023/10/21 11:48:29;;;;;;;1.02;0.40;;;18.30;1.00;;;;;;7371060;19;20011;-71
2023/10/21 11:50:59;;;;;;;1.98;0.60;;;18.20;1.00;;;;;;7375296;19;20022;-71
2023/10/21 11:53:31;;;;;;;1.40;0.60;;;18.00;1.00;;;;;;7375427;19;20011;-71
2023/10/21 12:02:30;;;;;;;2.45;0.60;;;18.10;1.00;;;;;;6866076;19;2004072;-71
2023/10/21 12:24:28;;;;;;;4.60;0.82;;;18.20;1.00;;;;;;7373043;19;20018;-72
2023/10/21 12:38:34;;;;;;;3.13;0.63;;;18.50;1.00;;;;;;6863540;19;2005043;-72
2023/10/21 12:43:49;;;;;;;1.38;0.50;;;18.70;1.00;;;;;;7376106;19;20028;-71
2023/10/21 12:46:20;;;;;;;3.88;0.70;;;18.60;1.00;;;;;;7375319;19;20025;-71
2023/10/21 12:48:55;;;;;;;2.42;0.60;;;18.70;1.00;;;;;;7373010;19;20036;-71
2023/10/21 12:51:41;;;;;;;2.15;0.50;;;18.70;1.00;;;;;;6864840;19;2004076;-71
2023/10/21 12:54:12;;;;;;;2.85;0.70;;;18.60;1.00;;;;;;7374391;19;20036;-72
2023/10/21 12:56:44;;;;;;;3.55;0.50;;;18.30;1.00;;;;;;7372650;19;20014;-71
2023/10/21 12:59:14;;;;;;;1.60;0.60;;;18.20;1.00;;;;;;7373382;19;20026;-71
2023/10/21 13:01:44;;;;;;;2.40;0.38;;;18.10;1.00;;;;;;7373783;19;20007;-71
2023/10/21 13:04:15;;;;;;;1.90;0.47;;;18.00;1.00;;;;;;7372768;19;20043;-71
2023/10/21 13:06:47;;;;;;;1.33;0.50;;;17.80;1.00;;;;;;7374608;19;20018;-71
2023/10/21 13:09:24;;;;;;;1.55;0.65;;;17.80;1.00;;;;;;7374029;19;20011;-72
2023/10/21 13:11:54;;;;;;;2.83;0.60;;;17.80;1.00;;;;;;7372149;19;20426;-71
2023/10/21 13:14:25;;;;;;;1.45;0.40;;;18.10;1.00;;;;;;7372364;19;20010;-71
2023/10/21 13:16:55;;;;;;;2.00;0.63;;;18.10;1.00;;;;;;7371561;19;20010;-71
2023/10/21 13:19:26;;;;;;;4.00;0.63;;;18.40;1.00;;;;;;7379928;19;20006;-71
2023/10/21 13:22:00;;;;;;;3.97;0.63;;;18.20;1.00;;;;;;7381302;19;20131;-72
2023/10/21 13:24:30;;;;;;;1.67;0.50;;;18.30;1.00;;;;;;7382509;19;20006;-71
2023/10/21 13:27:00;;;;;;;0.85;0.40;;;18.20;1.00;;;;;;7403403;19;20119;-71
2023/10/21 13:29:30;;;;;;;1.38;0.52;;;18.10;1.00;;;;;;7382739;19;20014;-71
2023/10/21 13:32:00;;;;;;;3.90;1.90;;;18.30;1.00;;;;;;7382225;19;20156;-71
2023/10/21 13:34:30;;;;;;;1.25;0.70;;;18.30;1.00;;;;;;7381567;19;20010;-72
2023/10/21 13:37:03;;;;;;;1.13;0.47;;;18.60;1.00;;;;;;7379486;19;20014;-72
2023/10/21 13:39:34;;;;;;;0.60;0.30;;;18.50;1.00;;;;;;7379747;19;20006;-71
2023/10/21 13:42:05;;;;;;;19.15;1.90;;;18.50;1.00;;;;;;7380726;19;20427;-72
2023/10/21 13:44:36;;;;;;;2.58;0.40;;;18.40;1.00;;;;;;7380910;19;20028;-71
2023/10/21 13:47:08;;;;;;;1.48;0.55;;;18.40;1.00;;;;;;7379794;19;20094;-71
2023/10/21 13:49:42;;;;;;;2.38;0.50;;;18.40;1.00;;;;;;7379533;19;20032;-71
2023/10/21 13:52:15;;;;;;;;;;;18.30;1.00;;;;;;7378460;19;20042;-71
2023/10/21 13:54:45;;;;;;;2.22;0.63;;;18.30;1.00;;;;;;7380716;19;19938;-71
2023/10/21 13:57:15;;;;;;;2.03;0.52;;;18.20;1.00;;;;;;7378513;19;20101;-71
2023/10/21 13:59:48;;;;;;;1.30;0.65;;;18.40;1.00;;;;;;7379035;19;20129;-71